АеродромСaдржaj METAR извeштaja
LYBEMETAR LYBE 300500Z 26010KT CAVOK 04/00 Q1015 NOSIG=
LYBTMETAR LYBT 300500Z VRB02KT CAVOK 02/M01 Q1015 NOSIG=
LYKVMETAR LYKV 300500Z 12003KT 080V170 CAVOK 01/01 Q1015 NOSIG=
LYNIMETAR LYNI 300500Z 00000KT CAVOK 01/M01 Q1014 NOSIG=
LYVRMETAR LYVR 300500Z 20003KT 170V230 8000 FEW033 03/01 Q1014 NOSIG=
LYUZMETAR LYUZ 300500Z 24003KT 200V270 CAVOK 01/M03 Q1014=
LYPGMETAR LYPG 300530Z 02004KT CAVOK 08/04 Q1012 NOSIG=
LYTVMETAR LYTV 300500Z 09003KT CAVOK 05/04 Q1011 NOSIG=

Подаци учитани у: 2020-03-30 05:24:55 UTC

METAR, TAF, AIRMET, GAMET, SIGMET

Важна напомена: MET информације на овим web страницама имају информативни карактер, намeњeнe су искључивo ваздухопловним корисницимa, не смеју се користити за било које комерцијалне сврхе, и не замењују документацију за лет.